Ana Sayfa
METAR-TAF:

METAR-TAF

Havaalanları :

Newton City/County Airport

Newton, Kansas, Amerika Birleşik Devletleri

Enlem: 38-03N, Boylam: 097-17W, yükseklik: 467 m

Güncel hava durumu gözlemi

Rapor saat 10:56 UTC de 4 saat ve 33 dakika önce yapıldı.
Rüzgar güneydan 9 kt
Sıcaklık 18°C
Nem 100%
Basınç 1009 hPa
Görüş mesafesi: 16.1 km
Açık gökyüzü

METAR: KEWK 181056Z AUTO 19009KT 10SM CLR 18/18 A2979 RMK AO2 SLP073 T01780178

Saat: 10:29 (15:29 UTC)


TAF: eksik

4.000'den fazla havaalanı için hava durumu gözlemleri ve tahminleri (METAR ve TAF raporları).

Kullanılabilir istasyonlar harita üzerinde sarı ve kırmızı noktalarla gösterilir.

İstasyonun adını görmek için fareyi noktanın üzerinde gezdirin.

Sonrasında hava gözlem ve tahminlerini görmek için tıklayın.

Haritayı değiştirmek için: yaklaştırmak için siyah artı işaretli yeşil düğmeye ve uzaklaştırmak için de eksi işaretli düğmeye hızla tıklayın; bitişik haritalar için yeşil okları kullanın.


METAR-TAF: